sensor_id;sensor_type;location;lat;lon;timestamp;P1;P2;P0
69222;PMS7003;56514;51.816;-0.026;2023-06-14T00:00:30;2.00;2.00;2.00
69222;PMS7003;56514;51.816;-0.026;2023-06-14T00:03:15;1.00;1.00;1.00
69222;PMS7003;56514;51.816;-0.026;2023-06-14T00:06:02;3.75;3.75;2.00
69222;PMS7003;56514;51.816;-0.026;2023-06-14T00:08:46;2.00;2.00;2.00
69222;PMS7003;56514;51.816;-0.026;2023-06-14T00:11:31;1.00;1.00;1.00
69222;PMS7003;56514;51.816;-0.026;2023-06-14T00:14:15;2.00;2.00;2.00
69222;PMS7003;56514;51.816;-0.026;2023-06-14T00:17:00;1.00;1.00;1.00
69222;PMS7003;56514;51.816;-0.026;2023-06-14T00:19:45;1.00;1.00;1.00
69222;PMS7003;56514;51.816;-0.026;2023-06-14T00:22:30;3.00;3.00;1.25
69222;PMS7003;56514;51.816;-0.026;2023-06-14T00:25:16;2.50;2.50;1.25
69222;PMS7003;56514;51.816;-0.026;2023-06-14T00:28:00;3.00;3.00;2.00
69222;PMS7003;56514;51.816;-0.026;2023-06-14T00:30:45;1.00;1.00;1.00
69222;PMS7003;56514;51.816;-0.026;2023-06-14T00:33:31;3.50;3.50;2.00
69222;PMS7003;56514;51.816;-0.026;2023-06-14T00:36:15;1.00;1.00;1.00
69222;PMS7003;56514;51.816;-0.026;2023-06-14T00:39:00;2.00;2.00;2.00
69222;PMS7003;56514;51.816;-0.026;2023-06-14T00:41:44;1.50;1.50;1.25
69222;PMS7003;56514;51.816;-0.026;2023-06-14T00:44:29;1.75;1.75;1.25
69222;PMS7003;56514;51.816;-0.026;2023-06-14T00:47:14;1.00;1.00;1.00
69222;PMS7003;56514;51.816;-0.026;2023-06-14T00:49:58;2.00;2.00;2.00
69222;PMS7003;56514;51.816;-0.026;2023-06-14T00:52:43;2.50;2.50;1.75
69222;PMS7003;56514;51.816;-0.026;2023-06-14T00:55:28;2.50;2.50;1.75
69222;PMS7003;56514;51.816;-0.026;2023-06-14T00:58:12;2.00;2.00;1.50
69222;PMS7003;56514;51.816;-0.026;2023-06-14T01:00:58;2.50;2.50;1.25
69222;PMS7003;56514;51.816;-0.026;2023-06-14T01:03:42;2.00;2.00;2.00
69222;PMS7003;56514;51.816;-0.026;2023-06-14T01:06:33;1.75;1.75;1.00
69222;PMS7003;56514;51.816;-0.026;2023-06-14T01:12:09;1.25;1.25;1.25
69222;PMS7003;56514;51.816;-0.026;2023-06-14T01:14:56;1.50;1.50;1.50
69222;PMS7003;56514;51.816;-0.026;2023-06-14T01:17:41;3.00;3.00;1.50
69222;PMS7003;56514;51.816;-0.026;2023-06-14T01:20:28;3.00;3.00;2.00
69222;PMS7003;56514;51.816;-0.026;2023-06-14T01:23:13;2.00;2.00;1.25
69222;PMS7003;56514;51.816;-0.026;2023-06-14T01:25:58;1.25;1.25;1.25
69222;PMS7003;56514;51.816;-0.026;2023-06-14T01:28:44;5.00;5.00;4.00
69222;PMS7003;56514;51.816;-0.026;2023-06-14T01:31:32;4.00;4.00;3.50
69222;PMS7003;56514;51.816;-0.026;2023-06-14T01:34:25;5.00;5.00;4.50
69222;PMS7003;56514;51.816;-0.026;2023-06-14T01:37:11;6.50;6.50;4.75
69222;PMS7003;56514;51.816;-0.026;2023-06-14T01:39:56;4.50;4.50;4.00
69222;PMS7003;56514;51.816;-0.026;2023-06-14T01:42:47;5.25;5.25;4.00
69222;PMS7003;56514;51.816;-0.026;2023-06-14T01:45:33;2.50;2.50;2.00
69222;PMS7003;56514;51.816;-0.026;2023-06-14T01:48:22;6.00;6.00;5.00
69222;PMS7003;56514;51.816;-0.026;2023-06-14T01:51:08;5.50;5.50;4.75
69222;PMS7003;56514;51.816;-0.026;2023-06-14T01:53:52;4.00;4.00;3.50
69222;PMS7003;56514;51.816;-0.026;2023-06-14T01:56:37;4.75;4.75;4.00
69222;PMS7003;56514;51.816;-0.026;2023-06-14T01:59:21;5.75;5.75;4.25
69222;PMS7003;56514;51.816;-0.026;2023-06-14T02:02:09;5.00;5.00;4.75
69222;PMS7003;56514;51.816;-0.026;2023-06-14T02:04:54;4.25;4.25;3.50
69222;PMS7003;56514;51.816;-0.026;2023-06-14T02:07:42;5.00;5.00;4.00
69222;PMS7003;56514;51.816;-0.026;2023-06-14T02:10:26;2.50;2.50;2.50
69222;PMS7003;56514;51.816;-0.026;2023-06-14T02:13:11;4.00;4.00;4.00
69222;PMS7003;56514;51.816;-0.026;2023-06-14T02:15:56;5.00;5.00;4.00
69222;PMS7003;56514;51.816;-0.026;2023-06-14T02:18:41;4.00;4.00;2.00
69222;PMS7003;56514;51.816;-0.026;2023-06-14T02:21:25;4.75;4.75;3.50
69222;PMS7003;56514;51.816;-0.026;2023-06-14T02:24:10;4.00;4.00;2.00
69222;PMS7003;56514;51.816;-0.026;2023-06-14T02:26:55;4.50;4.50;4.00
69222;PMS7003;56514;51.816;-0.026;2023-06-14T02:29:39;2.00;2.00;2.00
69222;PMS7003;56514;51.816;-0.026;2023-06-14T02:32:24;4.00;4.00;4.00
69222;PMS7003;56514;51.816;-0.026;2023-06-14T02:35:10;2.00;2.00;2.00
69222;PMS7003;56514;51.816;-0.026;2023-06-14T02:37:55;4.25;4.25;4.00
69222;PMS7003;56514;51.816;-0.026;2023-06-14T02:40:39;4.25;4.25;4.00
69222;PMS7003;56514;51.816;-0.026;2023-06-14T02:43:28;5.00;5.00;4.00
69222;PMS7003;56514;51.816;-0.026;2023-06-14T02:46:13;3.50;3.50;2.00
69222;PMS7003;56514;51.816;-0.026;2023-06-14T02:48:57;2.00;2.00;2.00
69222;PMS7003;56514;51.816;-0.026;2023-06-14T02:51:42;4.25;4.25;2.00
69222;PMS7003;56514;51.816;-0.026;2023-06-14T02:54:26;3.00;3.00;2.50
69222;PMS7003;56514;51.816;-0.026;2023-06-14T02:57:10;4.25;4.25;4.00
69222;PMS7003;56514;51.816;-0.026;2023-06-14T02:59:55;2.00;2.00;1.75
69222;PMS7003;56514;51.816;-0.026;2023-06-14T03:02:40;2.50;2.50;2.50
69222;PMS7003;56514;51.816;-0.026;2023-06-14T03:05:27;3.50;3.50;2.00
69222;PMS7003;56514;51.816;-0.026;2023-06-14T03:08:13;4.00;4.00;3.50
69222;PMS7003;56514;51.816;-0.026;2023-06-14T03:11:03;2.00;2.00;1.75
69222;PMS7003;56514;51.816;-0.026;2023-06-14T03:13:49;2.00;2.00;1.00
69222;PMS7003;56514;51.816;-0.026;2023-06-14T03:16:35;2.00;2.00;2.00
69222;PMS7003;56514;51.816;-0.026;2023-06-14T03:19:21;2.50;2.50;1.25
69222;PMS7003;56514;51.816;-0.026;2023-06-14T03:22:06;4.50;4.50;4.00
69222;PMS7003;56514;51.816;-0.026;2023-06-14T03:24:51;2.00;2.00;2.00
69222;PMS7003;56514;51.816;-0.026;2023-06-14T03:27:36;4.00;4.00;2.00
69222;PMS7003;56514;51.816;-0.026;2023-06-14T03:30:21;4.00;4.00;3.00
69222;PMS7003;56514;51.816;-0.026;2023-06-14T03:33:05;5.00;5.00;4.00
69222;PMS7003;56514;51.816;-0.026;2023-06-14T03:35:50;4.50;4.50;3.50
69222;PMS7003;56514;51.816;-0.026;2023-06-14T03:38:35;4.00;4.00;2.00
69222;PMS7003;56514;51.816;-0.026;2023-06-14T03:41:19;4.00;4.00;3.00
69222;PMS7003;56514;51.816;-0.026;2023-06-14T03:44:04;4.00;4.00;4.00
69222;PMS7003;56514;51.816;-0.026;2023-06-14T03:46:48;3.00;3.00;3.00
69222;PMS7003;56514;51.816;-0.026;2023-06-14T03:49:33;1.75;1.75;1.75
69222;PMS7003;56514;51.816;-0.026;2023-06-14T03:52:17;2.00;2.00;2.00
69222;PMS7003;56514;51.816;-0.026;2023-06-14T03:55:02;2.00;2.00;2.00
69222;PMS7003;56514;51.816;-0.026;2023-06-14T03:57:46;4.00;4.00;2.00
69222;PMS7003;56514;51.816;-0.026;2023-06-14T04:00:31;4.00;4.00;2.50
69222;PMS7003;56514;51.816;-0.026;2023-06-14T04:03:18;3.50;3.50;2.00
69222;PMS7003;56514;51.816;-0.026;2023-06-14T04:06:04;3.00;3.00;2.00
69222;PMS7003;56514;51.816;-0.026;2023-06-14T04:08:49;4.00;4.00;2.00
69222;PMS7003;56514;51.816;-0.026;2023-06-14T04:11:33;2.50;2.50;1.25
69222;PMS7003;56514;51.816;-0.026;2023-06-14T04:14:19;4.50;4.50;3.00
69222;PMS7003;56514;51.816;-0.026;2023-06-14T04:17:04;4.00;4.00;4.00
69222;PMS7003;56514;51.816;-0.026;2023-06-14T04:19:48;4.50;4.50;4.00
69222;PMS7003;56514;51.816;-0.026;2023-06-14T04:22:33;4.00;4.00;2.00
69222;PMS7003;56514;51.816;-0.026;2023-06-14T04:25:18;3.00;3.00;3.00
69222;PMS7003;56514;51.816;-0.026;2023-06-14T04:28:02;1.75;1.75;1.00
69222;PMS7003;56514;51.816;-0.026;2023-06-14T04:30:47;4.00;4.00;4.00
69222;PMS7003;56514;51.816;-0.026;2023-06-14T04:33:32;4.00;4.00;2.00
69222;PMS7003;56514;51.816;-0.026;2023-06-14T04:36:16;3.50;3.50;2.50
69222;PMS7003;56514;51.816;-0.026;2023-06-14T04:39:02;3.50;3.50;2.00
69222;PMS7003;56514;51.816;-0.026;2023-06-14T04:41:48;4.00;4.00;4.00
69222;PMS7003;56514;51.816;-0.026;2023-06-14T04:44:36;5.75;5.75;5.00
69222;PMS7003;56514;51.816;-0.026;2023-06-14T04:47:24;4.00;4.00;3.00
69222;PMS7003;56514;51.816;-0.026;2023-06-14T04:50:13;5.00;5.00;4.00
69222;PMS7003;56514;51.816;-0.026;2023-06-14T04:52:58;6.00;5.00;4.25
69222;PMS7003;56514;51.816;-0.026;2023-06-14T04:55:44;2.00;2.00;2.00
69222;PMS7003;56514;51.816;-0.026;2023-06-14T04:58:29;5.75;5.75;4.00
69222;PMS7003;56514;51.816;-0.026;2023-06-14T05:01:14;3.50;3.50;2.50
69222;PMS7003;56514;51.816;-0.026;2023-06-14T05:03:58;4.25;4.25;4.00
69222;PMS7003;56514;51.816;-0.026;2023-06-14T05:06:43;4.00;4.00;4.00
69222;PMS7003;56514;51.816;-0.026;2023-06-14T05:09:29;5.00;5.00;4.00
69222;PMS7003;56514;51.816;-0.026;2023-06-14T05:12:13;4.75;4.75;2.00
69222;PMS7003;56514;51.816;-0.026;2023-06-14T05:14:57;4.50;4.50;4.00
69222;PMS7003;56514;51.816;-0.026;2023-06-14T05:17:43;5.25;5.25;4.00
69222;PMS7003;56514;51.816;-0.026;2023-06-14T05:20:27;4.00;4.00;3.00
69222;PMS7003;56514;51.816;-0.026;2023-06-14T05:23:13;4.75;4.75;4.00
69222;PMS7003;56514;51.816;-0.026;2023-06-14T05:25:59;4.25;4.25;2.50
69222;PMS7003;56514;51.816;-0.026;2023-06-14T05:28:44;4.75;4.75;3.50
69222;PMS7003;56514;51.816;-0.026;2023-06-14T05:31:29;5.00;5.00;5.00
69222;PMS7003;56514;51.816;-0.026;2023-06-14T05:34:13;2.50;2.50;2.00
69222;PMS7003;56514;51.816;-0.026;2023-06-14T05:36:58;5.00;5.00;4.00
69222;PMS7003;56514;51.816;-0.026;2023-06-14T05:39:42;4.00;4.00;2.00
69222;PMS7003;56514;51.816;-0.026;2023-06-14T05:42:27;4.75;4.75;4.00
69222;PMS7003;56514;51.816;-0.026;2023-06-14T05:45:11;5.00;5.00;4.00
69222;PMS7003;56514;51.816;-0.026;2023-06-14T05:47:56;5.75;5.75;4.75
69222;PMS7003;56514;51.816;-0.026;2023-06-14T05:50:41;5.75;5.75;5.00
69222;PMS7003;56514;51.816;-0.026;2023-06-14T05:53:25;5.50;5.50;4.75
69222;PMS7003;56514;51.816;-0.026;2023-06-14T05:56:10;5.50;5.50;5.00
69222;PMS7003;56514;51.816;-0.026;2023-06-14T05:58:54;6.00;6.00;5.00
69222;PMS7003;56514;51.816;-0.026;2023-06-14T06:01:39;5.25;5.25;4.25
69222;PMS7003;56514;51.816;-0.026;2023-06-14T06:04:24;5.00;5.00;4.00
69222;PMS7003;56514;51.816;-0.026;2023-06-14T06:07:08;5.25;5.25;4.75
69222;PMS7003;56514;51.816;-0.026;2023-06-14T06:09:54;5.25;5.25;3.50
69222;PMS7003;56514;51.816;-0.026;2023-06-14T06:12:38;2.50;2.50;2.00
69222;PMS7003;56514;51.816;-0.026;2023-06-14T06:15:23;5.00;5.00;4.25
69222;PMS7003;56514;51.816;-0.026;2023-06-14T06:18:07;5.75;5.75;4.50
69222;PMS7003;56514;51.816;-0.026;2023-06-14T06:20:52;4.50;4.50;4.50
69222;PMS7003;56514;51.816;-0.026;2023-06-14T06:23:36;5.00;5.00;3.00
69222;PMS7003;56514;51.816;-0.026;2023-06-14T06:26:21;5.00;5.00;3.00
69222;PMS7003;56514;51.816;-0.026;2023-06-14T06:29:06;3.00;3.00;2.00
69222;PMS7003;56514;51.816;-0.026;2023-06-14T06:31:52;5.25;5.25;3.50
69222;PMS7003;56514;51.816;-0.026;2023-06-14T06:34:37;4.50;4.50;2.00
69222;PMS7003;56514;51.816;-0.026;2023-06-14T06:37:21;5.00;5.00;5.00
69222;PMS7003;56514;51.816;-0.026;2023-06-14T06:40:07;3.00;3.00;3.00
69222;PMS7003;56514;51.816;-0.026;2023-06-14T06:42:52;2.50;2.50;2.00
69222;PMS7003;56514;51.816;-0.026;2023-06-14T06:45:38;2.00;2.00;2.00
69222;PMS7003;56514;51.816;-0.026;2023-06-14T06:48:23;5.00;5.00;3.00
69222;PMS7003;56514;51.816;-0.026;2023-06-14T06:51:08;5.00;5.00;3.00
69222;PMS7003;56514;51.816;-0.026;2023-06-14T06:53:53;5.25;5.25;4.75
69222;PMS7003;56514;51.816;-0.026;2023-06-14T06:56:38;3.50;3.50;2.75
69222;PMS7003;56514;51.816;-0.026;2023-06-14T06:59:23;4.00;4.00;3.00
69222;PMS7003;56514;51.816;-0.026;2023-06-14T07:02:08;3.00;3.00;3.00
69222;PMS7003;56514;51.816;-0.026;2023-06-14T07:04:53;4.50;4.50;3.50
69222;PMS7003;56514;51.816;-0.026;2023-06-14T07:07:37;5.00;5.00;3.00
69222;PMS7003;56514;51.816;-0.026;2023-06-14T07:10:22;5.00;5.00;5.00
69222;PMS7003;56514;51.816;-0.026;2023-06-14T07:13:09;3.00;3.00;2.75
69222;PMS7003;56514;51.816;-0.026;2023-06-14T07:15:59;3.00;3.00;3.00
69222;PMS7003;56514;51.816;-0.026;2023-06-14T07:18:44;5.25;5.25;2.75
69222;PMS7003;56514;51.816;-0.026;2023-06-14T07:21:29;4.50;4.50;3.00
69222;PMS7003;56514;51.816;-0.026;2023-06-14T07:24:13;2.75;2.75;2.00
69222;PMS7003;56514;51.816;-0.026;2023-06-14T07:26:58;5.75;5.00;3.00
69222;PMS7003;56514;51.816;-0.026;2023-06-14T07:29:43;4.25;4.25;3.00
69222;PMS7003;56514;51.816;-0.026;2023-06-14T07:32:28;4.25;4.25;4.25
69222;PMS7003;56514;51.816;-0.026;2023-06-14T07:35:12;3.00;3.00;3.00
69222;PMS7003;56514;51.816;-0.026;2023-06-14T07:37:57;4.00;4.00;2.25
69222;PMS7003;56514;51.816;-0.026;2023-06-14T07:40:41;4.25;4.25;3.00
69222;PMS7003;56514;51.816;-0.026;2023-06-14T07:43:26;2.25;2.25;2.00
69222;PMS7003;56514;51.816;-0.026;2023-06-14T07:46:11;3.25;3.25;3.25
69222;PMS7003;56514;51.816;-0.026;2023-06-14T07:48:55;4.00;4.00;4.00
69222;PMS7003;56514;51.816;-0.026;2023-06-14T07:51:40;5.50;5.50;4.00
69222;PMS7003;56514;51.816;-0.026;2023-06-14T07:54:24;5.00;5.00;5.00
69222;PMS7003;56514;51.816;-0.026;2023-06-14T07:57:10;4.00;4.00;4.00
69222;PMS7003;56514;51.816;-0.026;2023-06-14T07:59:55;1.00;1.00;1.00
69222;PMS7003;56514;51.816;-0.026;2023-06-14T08:02:39;3.00;3.00;2.00
69222;PMS7003;56514;51.816;-0.026;2023-06-14T08:05:24;3.00;3.00;3.00
69222;PMS7003;56514;51.816;-0.026;2023-06-14T08:08:10;3.00;3.00;2.00
69222;PMS7003;56514;51.816;-0.026;2023-06-14T08:10:54;4.00;4.00;3.50
69222;PMS7003;56514;51.816;-0.026;2023-06-14T08:13:39;6.00;6.00;5.00
69222;PMS7003;56514;51.816;-0.026;2023-06-14T08:16:23;5.50;5.50;3.25
69222;PMS7003;56514;51.816;-0.026;2023-06-14T08:19:10;4.00;4.00;3.00
69222;PMS7003;56514;51.816;-0.026;2023-06-14T08:21:54;4.00;4.00;4.00
69222;PMS7003;56514;51.816;-0.026;2023-06-14T08:24:40;3.50;3.50;3.00
69222;PMS7003;56514;51.816;-0.026;2023-06-14T08:27:26;3.75;3.75;3.00
69222;PMS7003;56514;51.816;-0.026;2023-06-14T08:30:11;4.25;4.25;3.25
69222;PMS7003;56514;51.816;-0.026;2023-06-14T08:32:55;6.75;4.75;4.00
69222;PMS7003;56514;51.816;-0.026;2023-06-14T08:35:40;5.00;5.00;4.75
69222;PMS7003;56514;51.816;-0.026;2023-06-14T08:38:25;4.00;4.00;3.00
69222;PMS7003;56514;51.816;-0.026;2023-06-14T08:41:10;6.50;6.50;5.00
69222;PMS7003;56514;51.816;-0.026;2023-06-14T08:43:56;4.75;4.75;4.00
69222;PMS7003;56514;51.816;-0.026;2023-06-14T08:46:41;4.75;4.00;3.75
69222;PMS7003;56514;51.816;-0.026;2023-06-14T08:49:26;5.00;5.00;4.00
69222;PMS7003;56514;51.816;-0.026;2023-06-14T08:52:11;5.50;5.50;4.25
69222;PMS7003;56514;51.816;-0.026;2023-06-14T08:54:57;5.00;5.00;3.75
69222;PMS7003;56514;51.816;-0.026;2023-06-14T08:57:41;5.50;5.50;4.25
69222;PMS7003;56514;51.816;-0.026;2023-06-14T09:00:27;5.00;5.00;5.00
69222;PMS7003;56514;51.816;-0.026;2023-06-14T09:03:12;4.50;4.50;4.00
69222;PMS7003;56514;51.816;-0.026;2023-06-14T09:05:59;5.00;5.00;4.25
69222;PMS7003;56514;51.816;-0.026;2023-06-14T09:08:45;5.25;5.25;5.00
69222;PMS7003;56514;51.816;-0.026;2023-06-14T09:11:30;7.50;7.50;5.00
69222;PMS7003;56514;51.816;-0.026;2023-06-14T09:14:15;6.00;6.00;4.50
69222;PMS7003;56514;51.816;-0.026;2023-06-14T09:16:59;8.00;8.00;6.50
69222;PMS7003;56514;51.816;-0.026;2023-06-14T09:19:45;8.00;8.00;6.00
69222;PMS7003;56514;51.816;-0.026;2023-06-14T09:22:29;6.00;6.00;5.00
69222;PMS7003;56514;51.816;-0.026;2023-06-14T09:25:15;8.00;8.00;6.00
69222;PMS7003;56514;51.816;-0.026;2023-06-14T09:28:00;6.50;5.75;3.50
69222;PMS7003;56514;51.816;-0.026;2023-06-14T09:30:47;5.50;5.50;4.50
69222;PMS7003;56514;51.816;-0.026;2023-06-14T09:33:32;6.00;5.50;5.00
69222;PMS7003;56514;51.816;-0.026;2023-06-14T09:36:17;4.25;4.25;4.25
69222;PMS7003;56514;51.816;-0.026;2023-06-14T09:39:02;5.50;5.50;4.00
69222;PMS7003;56514;51.816;-0.026;2023-06-14T09:41:51;6.50;6.50;6.00
69222;PMS7003;56514;51.816;-0.026;2023-06-14T09:44:36;8.75;8.75;5.75
69222;PMS7003;56514;51.816;-0.026;2023-06-14T09:47:20;5.75;5.75;4.75
69222;PMS7003;56514;51.816;-0.026;2023-06-14T09:50:05;6.25;6.25;5.50
69222;PMS7003;56514;51.816;-0.026;2023-06-14T09:52:51;5.25;5.25;4.00
69222;PMS7003;56514;51.816;-0.026;2023-06-14T09:55:37;6.00;6.00;5.00
69222;PMS7003;56514;51.816;-0.026;2023-06-14T09:58:23;10.00;10.00;8.50
69222;PMS7003;56514;51.816;-0.026;2023-06-14T10:01:09;8.00;8.00;6.75
69222;PMS7003;56514;51.816;-0.026;2023-06-14T10:04:04;6.00;6.00;5.00
69222;PMS7003;56514;51.816;-0.026;2023-06-14T10:06:49;8.25;8.25;7.25
69222;PMS7003;56514;51.816;-0.026;2023-06-14T10:09:34;10.00;10.00;7.00
69222;PMS7003;56514;51.816;-0.026;2023-06-14T10:12:19;9.00;9.00;6.75
69222;PMS7003;56514;51.816;-0.026;2023-06-14T10:15:10;7.75;7.75;6.00
69222;PMS7003;56514;51.816;-0.026;2023-06-14T10:18:07;5.75;5.75;5.75
69222;PMS7003;56514;51.816;-0.026;2023-06-14T10:23:44;6.00;6.00;5.50
69222;PMS7003;56514;51.816;-0.026;2023-06-14T10:26:30;6.50;6.50;6.00
69222;PMS7003;56514;51.816;-0.026;2023-06-14T10:29:14;7.00;7.00;6.50
69222;PMS7003;56514;51.816;-0.026;2023-06-14T10:31:59;6.50;6.50;6.00
69222;PMS7003;56514;51.816;-0.026;2023-06-14T10:34:44;7.00;7.00;6.00
69222;PMS7003;56514;51.816;-0.026;2023-06-14T10:37:29;8.25;8.25;6.25
69222;PMS7003;56514;51.816;-0.026;2023-06-14T10:40:30;7.00;7.00;5.75
69222;PMS7003;56514;51.816;-0.026;2023-06-14T10:43:21;8.00;8.00;7.00
69222;PMS7003;56514;51.816;-0.026;2023-06-14T10:46:12;7.25;7.25;6.00
69222;PMS7003;56514;51.816;-0.026;2023-06-14T10:48:57;7.50;7.50;6.00
69222;PMS7003;56514;51.816;-0.026;2023-06-14T10:51:42;7.50;7.50;6.25
69222;PMS7003;56514;51.816;-0.026;2023-06-14T10:54:36;7.50;7.50;6.75
69222;PMS7003;56514;51.816;-0.026;2023-06-14T10:57:21;7.25;7.25;6.00
69222;PMS7003;56514;51.816;-0.026;2023-06-14T11:00:06;7.00;7.00;6.00
69222;PMS7003;56514;51.816;-0.026;2023-06-14T11:05:57;6.50;6.50;6.00
69222;PMS7003;56514;51.816;-0.026;2023-06-14T11:11:42;7.75;7.75;6.00
69222;PMS7003;56514;51.816;-0.026;2023-06-14T11:14:31;7.75;7.75;6.00
69222;PMS7003;56514;51.816;-0.026;2023-06-14T11:17:15;9.50;9.50;8.00
69222;PMS7003;56514;51.816;-0.026;2023-06-14T11:20:13;8.00;8.00;6.50
69222;PMS7003;56514;51.816;-0.026;2023-06-14T11:23:00;12.25;12.25;8.75
69222;PMS7003;56514;51.816;-0.026;2023-06-14T11:25:51;9.75;9.75;8.25
69222;PMS7003;56514;51.816;-0.026;2023-06-14T11:28:41;9.00;9.00;8.00
69222;PMS7003;56514;51.816;-0.026;2023-06-14T11:31:26;8.25;8.25;7.00
69222;PMS7003;56514;51.816;-0.026;2023-06-14T11:34:11;10.00;10.00;7.50
69222;PMS7003;56514;51.816;-0.026;2023-06-14T11:36:56;9.25;9.25;8.25
69222;PMS7003;56514;51.816;-0.026;2023-06-14T11:39:43;8.75;8.75;7.50
69222;PMS7003;56514;51.816;-0.026;2023-06-14T11:42:27;7.75;7.75;7.00
69222;PMS7003;56514;51.816;-0.026;2023-06-14T11:45:12;7.50;7.50;7.00
69222;PMS7003;56514;51.816;-0.026;2023-06-14T11:48:00;7.25;7.25;6.50
69222;PMS7003;56514;51.816;-0.026;2023-06-14T11:50:49;9.00;9.00;8.00
69222;PMS7003;56514;51.816;-0.026;2023-06-14T11:53:34;8.00;8.00;7.00
69222;PMS7003;56514;51.816;-0.026;2023-06-14T11:56:19;10.00;10.00;8.00
69222;PMS7003;56514;51.816;-0.026;2023-06-14T11:59:04;9.25;9.25;7.75
69222;PMS7003;56514;51.816;-0.026;2023-06-14T12:01:49;7.00;7.00;6.25
69222;PMS7003;56514;51.816;-0.026;2023-06-14T12:04:34;10.00;10.00;8.25
69222;PMS7003;56514;51.816;-0.026;2023-06-14T12:07:19;9.75;9.75;8.00
69222;PMS7003;56514;51.816;-0.026;2023-06-14T12:10:06;9.00;9.00;8.00
69222;PMS7003;56514;51.816;-0.026;2023-06-14T12:12:56;8.75;8.75;7.25
69222;PMS7003;56514;51.816;-0.026;2023-06-14T12:15:41;9.00;9.00;8.00
69222;PMS7003;56514;51.816;-0.026;2023-06-14T12:18:32;9.25;9.25;8.00
69222;PMS7003;56514;51.816;-0.026;2023-06-14T12:21:22;10.25;10.25;9.75
69222;PMS7003;56514;51.816;-0.026;2023-06-14T12:24:11;9.75;9.75;8.25
69222;PMS7003;56514;51.816;-0.026;2023-06-14T12:26:59;10.25;10.25;9.00
69222;PMS7003;56514;51.816;-0.026;2023-06-14T12:29:58;12.00;12.00;9.75
69222;PMS7003;56514;51.816;-0.026;2023-06-14T12:32:43;9.50;9.50;8.00
69222;PMS7003;56514;51.816;-0.026;2023-06-14T12:35:31;10.00;10.00;9.00
69222;PMS7003;56514;51.816;-0.026;2023-06-14T12:38:16;9.00;9.00;8.00
69222;PMS7003;56514;51.816;-0.026;2023-06-14T12:41:00;8.75;8.75;8.25
69222;PMS7003;56514;51.816;-0.026;2023-06-14T12:43:45;12.25;12.25;10.25
69222;PMS7003;56514;51.816;-0.026;2023-06-14T12:46:33;10.00;10.00;8.00
69222;PMS7003;56514;51.816;-0.026;2023-06-14T12:49:17;9.50;9.50;7.75
69222;PMS7003;56514;51.816;-0.026;2023-06-14T12:52:02;8.00;8.00;7.50
69222;PMS7003;56514;51.816;-0.026;2023-06-14T12:54:47;7.75;7.75;6.75
69222;PMS7003;56514;51.816;-0.026;2023-06-14T12:57:31;9.25;9.25;8.00
69222;PMS7003;56514;51.816;-0.026;2023-06-14T13:00:16;9.00;9.00;8.00
69222;PMS7003;56514;51.816;-0.026;2023-06-14T13:03:01;9.25;9.25;8.50
69222;PMS7003;56514;51.816;-0.026;2023-06-14T13:05:46;8.75;8.75;8.00
69222;PMS7003;56514;51.816;-0.026;2023-06-14T13:08:30;8.50;8.50;7.50
69222;PMS7003;56514;51.816;-0.026;2023-06-14T13:11:15;9.75;9.75;8.00
69222;PMS7003;56514;51.816;-0.026;2023-06-14T13:14:00;10.00;10.00;9.00
69222;PMS7003;56514;51.816;-0.026;2023-06-14T13:16:44;10.50;10.50;8.75
69222;PMS7003;56514;51.816;-0.026;2023-06-14T13:19:29;8.75;8.75;8.25
69222;PMS7003;56514;51.816;-0.026;2023-06-14T13:22:14;8.00;8.00;8.00
69222;PMS7003;56514;51.816;-0.026;2023-06-14T13:25:03;10.75;10.75;10.00
69222;PMS7003;56514;51.816;-0.026;2023-06-14T13:27:47;10.25;10.25;8.75
69222;PMS7003;56514;51.816;-0.026;2023-06-14T13:30:32;9.75;9.75;8.50
69222;PMS7003;56514;51.816;-0.026;2023-06-14T13:33:18;10.00;10.00;9.00
69222;PMS7003;56514;51.816;-0.026;2023-06-14T13:36:02;9.50;9.50;8.25
69222;PMS7003;56514;51.816;-0.026;2023-06-14T13:38:47;10.75;10.75;8.00
69222;PMS7003;56514;51.816;-0.026;2023-06-14T13:41:31;10.00;10.00;9.25
69222;PMS7003;56514;51.816;-0.026;2023-06-14T13:44:18;11.00;11.00;10.25
69222;PMS7003;56514;51.816;-0.026;2023-06-14T13:47:05;9.00;9.00;8.00
69222;PMS7003;56514;51.816;-0.026;2023-06-14T13:49:50;9.00;9.00;8.75
69222;PMS7003;56514;51.816;-0.026;2023-06-14T13:52:34;9.50;9.50;8.50
69222;PMS7003;56514;51.816;-0.026;2023-06-14T13:55:19;8.00;8.00;7.75
69222;PMS7003;56514;51.816;-0.026;2023-06-14T13:58:04;8.25;8.25;7.50
69222;PMS7003;56514;51.816;-0.026;2023-06-14T14:00:49;12.25;12.25;9.75
69222;PMS7003;56514;51.816;-0.026;2023-06-14T14:03:33;8.75;8.75;7.25
69222;PMS7003;56514;51.816;-0.026;2023-06-14T14:06:18;10.50;10.50;8.25
69222;PMS7003;56514;51.816;-0.026;2023-06-14T14:09:03;9.75;9.75;8.25
69222;PMS7003;56514;51.816;-0.026;2023-06-14T14:11:47;9.75;9.75;9.00
69222;PMS7003;56514;51.816;-0.026;2023-06-14T14:14:33;9.50;9.50;8.25
69222;PMS7003;56514;51.816;-0.026;2023-06-14T14:17:18;10.25;10.25;8.75
69222;PMS7003;56514;51.816;-0.026;2023-06-14T14:20:03;11.50;11.50;9.75
69222;PMS7003;56514;51.816;-0.026;2023-06-14T14:22:47;11.25;11.25;10.50
69222;PMS7003;56514;51.816;-0.026;2023-06-14T14:25:31;9.50;9.50;8.75
69222;PMS7003;56514;51.816;-0.026;2023-06-14T14:28:16;9.00;9.00;8.00
69222;PMS7003;56514;51.816;-0.026;2023-06-14T14:31:03;10.00;10.00;8.00
69222;PMS7003;56514;51.816;-0.026;2023-06-14T14:33:48;9.50;9.50;8.50
69222;PMS7003;56514;51.816;-0.026;2023-06-14T14:36:32;9.25;9.25;8.75
69222;PMS7003;56514;51.816;-0.026;2023-06-14T14:39:22;7.00;7.00;7.00
69222;PMS7003;56514;51.816;-0.026;2023-06-14T14:42:10;8.00;8.00;8.00
69222;PMS7003;56514;51.816;-0.026;2023-06-14T14:44:56;8.00;8.00;8.00
69222;PMS7003;56514;51.816;-0.026;2023-06-14T14:47:41;8.00;8.00;7.00
69222;PMS7003;56514;51.816;-0.026;2023-06-14T14:50:25;9.25;9.25;9.00
69222;PMS7003;56514;51.816;-0.026;2023-06-14T14:53:10;9.50;9.50;8.50
69222;PMS7003;56514;51.816;-0.026;2023-06-14T14:55:55;7.75;7.75;7.25
69222;PMS7003;56514;51.816;-0.026;2023-06-14T14:58:39;7.50;7.50;7.00
69222;PMS7003;56514;51.816;-0.026;2023-06-14T15:01:24;7.75;7.75;6.75
69222;PMS7003;56514;51.816;-0.026;2023-06-14T15:04:12;7.50;7.50;6.75
69222;PMS7003;56514;51.816;-0.026;2023-06-14T15:06:56;6.50;6.50;5.75
69222;PMS7003;56514;51.816;-0.026;2023-06-14T15:09:41;7.25;7.25;6.25
69222;PMS7003;56514;51.816;-0.026;2023-06-14T15:12:26;8.50;8.50;7.25
69222;PMS7003;56514;51.816;-0.026;2023-06-14T15:15:10;9.00;9.00;7.00
69222;PMS7003;56514;51.816;-0.026;2023-06-14T15:17:54;6.75;6.75;5.75
69222;PMS7003;56514;51.816;-0.026;2023-06-14T15:20:39;7.00;7.00;6.00
69222;PMS7003;56514;51.816;-0.026;2023-06-14T15:23:25;7.50;7.50;7.25
69222;PMS7003;56514;51.816;-0.026;2023-06-14T15:26:10;7.00;7.00;6.50
69222;PMS7003;56514;51.816;-0.026;2023-06-14T15:28:54;6.00;6.00;6.00
69222;PMS7003;56514;51.816;-0.026;2023-06-14T15:31:39;7.00;7.00;6.75
69222;PMS7003;56514;51.816;-0.026;2023-06-14T15:34:24;5.75;5.75;5.50
69222;PMS7003;56514;51.816;-0.026;2023-06-14T15:37:09;5.50;5.50;5.25
69222;PMS7003;56514;51.816;-0.026;2023-06-14T15:39:54;5.50;5.50;5.50
69222;PMS7003;56514;51.816;-0.026;2023-06-14T15:42:39;6.00;6.00;6.00
69222;PMS7003;56514;51.816;-0.026;2023-06-14T15:45:23;7.00;7.00;6.00
69222;PMS7003;56514;51.816;-0.026;2023-06-14T15:48:10;7.50;7.50;6.25
69222;PMS7003;56514;51.816;-0.026;2023-06-14T15:50:55;6.25;6.25;6.25
69222;PMS7003;56514;51.816;-0.026;2023-06-14T15:53:39;5.00;5.00;5.00
69222;PMS7003;56514;51.816;-0.026;2023-06-14T15:56:24;8.00;8.00;7.00
69222;PMS7003;56514;51.816;-0.026;2023-06-14T15:59:11;6.25;6.25;5.50
69222;PMS7003;56514;51.816;-0.026;2023-06-14T16:01:55;6.50;6.50;6.25
69222;PMS7003;56514;51.816;-0.026;2023-06-14T16:04:40;7.50;7.25;6.75